createdAt,value
2023-03-31T00:02:14.926Z,3.60
2023-03-31T00:04:52.796Z,4.50
2023-03-31T00:07:23.770Z,3.67
2023-03-31T00:10:03.696Z,3.80
2023-03-31T00:12:34.500Z,3.80
2023-03-31T00:15:01.669Z,3.25
2023-03-31T00:17:28.906Z,3.35
2023-03-31T00:20:00.347Z,3.53
2023-03-31T00:22:28.050Z,3.28
2023-03-31T00:24:55.320Z,3.78
2023-03-31T00:27:22.470Z,3.40
2023-03-31T00:29:50.770Z,3.58
2023-03-31T00:32:18.044Z,3.45
2023-03-31T00:34:46.342Z,3.40
2023-03-31T00:37:14.898Z,3.40
2023-03-31T00:39:43.292Z,3.20
2023-03-31T00:42:13.013Z,3.78
2023-03-31T00:45:00.187Z,3.55
2023-03-31T00:47:29.837Z,3.28
2023-03-31T00:49:57.989Z,3.75
2023-03-31T00:52:37.486Z,3.67
2023-03-31T00:55:08.534Z,3.42
2023-03-31T00:57:39.233Z,3.20
2023-03-31T01:00:18.922Z,3.35
2023-03-31T01:02:53.168Z,3.63
2023-03-31T01:05:26.250Z,3.42
2023-03-31T01:07:53.700Z,4.25
2023-03-31T01:10:21.940Z,3.15
2023-03-31T01:12:50.826Z,2.95
2023-03-31T01:15:18.386Z,3.30
2023-03-31T01:17:45.876Z,2.88
2023-03-31T01:20:31.793Z,3.13
2023-03-31T01:23:17.898Z,3.00
2023-03-31T01:28:24.342Z,3.60
2023-03-31T01:31:00.727Z,3.45
2023-03-31T01:33:53.462Z,2.92
2023-03-31T01:36:23.461Z,3.30
2023-03-31T01:38:53.490Z,3.45
2023-03-31T01:41:33.141Z,3.25
2023-03-31T01:44:22.952Z,3.60
2023-03-31T01:47:10.400Z,3.42
2023-03-31T01:49:43.885Z,3.22
2023-03-31T01:52:23.355Z,3.28
2023-03-31T01:54:55.382Z,2.80
2023-03-31T01:57:30.054Z,3.03
2023-03-31T02:00:03.264Z,3.15
2023-03-31T02:02:37.737Z,3.30
2023-03-31T02:05:09.870Z,2.95
2023-03-31T02:07:53.062Z,3.45
2023-03-31T02:10:21.396Z,3.17
2023-03-31T02:12:49.442Z,3.25
2023-03-31T02:15:21.700Z,3.50
2023-03-31T02:17:51.032Z,3.05
2023-03-31T02:20:19.950Z,3.38
2023-03-31T02:22:49.180Z,2.83
2023-03-31T02:25:18.618Z,3.00
2023-03-31T02:27:48.367Z,2.70
2023-03-31T02:30:15.782Z,3.05
2023-03-31T02:32:44.687Z,2.70
2023-03-31T02:35:20.136Z,3.22
2023-03-31T02:37:49.671Z,3.35
2023-03-31T02:40:19.011Z,3.40
2023-03-31T02:42:46.230Z,2.97
2023-03-31T02:45:32.471Z,3.30
2023-03-31T02:47:59.758Z,2.83
2023-03-31T02:50:30.949Z,3.05
2023-03-31T02:53:19.614Z,3.35
2023-03-31T02:55:47.355Z,3.08
2023-03-31T02:58:18.264Z,2.70
2023-03-31T03:00:56.048Z,2.90
2023-03-31T03:03:23.377Z,3.53
2023-03-31T03:05:50.642Z,2.95
2023-03-31T03:08:23.826Z,2.97
2023-03-31T03:10:50.958Z,2.90
2023-03-31T03:13:18.159Z,2.60
2023-03-31T03:15:48.577Z,2.70
2023-03-31T03:18:16.125Z,3.38
2023-03-31T03:20:48.488Z,2.90
2023-03-31T03:23:16.696Z,3.20
2023-03-31T03:25:44.042Z,3.15
2023-03-31T03:28:11.587Z,2.90
2023-03-31T03:30:39.012Z,2.95
2023-03-31T03:33:06.922Z,3.03
2023-03-31T03:35:34.724Z,2.47
2023-03-31T03:38:01.958Z,2.70
2023-03-31T03:40:29.137Z,2.90
2023-03-31T03:42:56.425Z,2.67
2023-03-31T03:45:23.636Z,2.10
2023-03-31T03:47:51.055Z,2.72
2023-03-31T03:50:18.312Z,2.88
2023-03-31T03:52:45.795Z,2.60
2023-03-31T03:55:13.820Z,2.67
2023-03-31T03:57:41.104Z,2.90
2023-03-31T04:00:12.365Z,2.60
2023-03-31T04:02:40.289Z,2.53
2023-03-31T04:05:07.955Z,3.30
2023-03-31T04:07:35.306Z,2.85
2023-03-31T04:10:02.576Z,2.88
2023-03-31T04:12:29.816Z,2.83
2023-03-31T04:14:57.078Z,2.40
2023-03-31T04:17:32.658Z,2.75
2023-03-31T04:22:35.374Z,2.55
2023-03-31T04:25:04.076Z,2.75
2023-03-31T04:27:32.820Z,3.13
2023-03-31T04:30:00.113Z,2.70
2023-03-31T04:32:28.392Z,2.75
2023-03-31T04:35:03.365Z,2.50
2023-03-31T04:37:35.840Z,2.90
2023-03-31T04:40:09.869Z,2.72
2023-03-31T04:42:37.284Z,2.88
2023-03-31T04:45:04.600Z,2.67
2023-03-31T04:47:31.885Z,2.40
2023-03-31T04:49:59.108Z,2.38
2023-03-31T04:52:26.268Z,2.60
2023-03-31T04:54:53.480Z,2.60
2023-03-31T04:57:20.674Z,2.85
2023-03-31T04:59:48.035Z,2.55
2023-03-31T05:02:25.308Z,2.45
2023-03-31T05:04:52.891Z,2.53
2023-03-31T05:07:20.542Z,2.88
2023-03-31T05:09:47.773Z,2.30
2023-03-31T05:12:14.973Z,2.63
2023-03-31T05:14:42.462Z,2.58
2023-03-31T05:17:09.720Z,2.80
2023-03-31T05:19:36.929Z,2.80
2023-03-31T05:22:04.203Z,3.10
2023-03-31T05:24:31.397Z,3.13
2023-03-31T05:26:58.544Z,2.70
2023-03-31T05:29:25.876Z,2.50
2023-03-31T05:31:56.221Z,3.30
2023-03-31T05:34:23.401Z,2.63
2023-03-31T05:36:53.476Z,3.88
2023-03-31T05:39:21.256Z,2.75
2023-03-31T05:41:48.598Z,3.20
2023-03-31T05:44:16.055Z,3.80
2023-03-31T05:46:43.364Z,3.60
2023-03-31T05:49:11.900Z,3.35
2023-03-31T05:51:39.097Z,2.78
2023-03-31T05:54:06.572Z,2.63
2023-03-31T05:56:38.088Z,2.72
2023-03-31T05:59:05.503Z,3.38
2023-03-31T06:01:33.028Z,3.28
2023-03-31T06:04:00.425Z,3.55
2023-03-31T06:06:27.940Z,3.75
2023-03-31T06:08:55.295Z,2.95
2023-03-31T06:11:23.190Z,3.50
2023-03-31T06:13:50.698Z,3.47
2023-03-31T06:16:18.358Z,3.75
2023-03-31T06:18:46.340Z,3.22
2023-03-31T06:21:14.083Z,3.70
2023-03-31T06:23:41.689Z,3.65
2023-03-31T06:26:09.305Z,3.15
2023-03-31T06:28:37.149Z,3.45
2023-03-31T06:31:06.064Z,3.33
2023-03-31T06:33:34.338Z,3.45
2023-03-31T06:36:04.097Z,3.25
2023-03-31T06:38:31.691Z,3.05
2023-03-31T06:40:58.948Z,3.20
2023-03-31T06:43:26.377Z,3.28
2023-03-31T06:45:54.123Z,3.78
2023-03-31T06:48:21.638Z,3.42
2023-03-31T06:50:48.861Z,3.47
2023-03-31T06:53:16.262Z,3.35
2023-03-31T06:55:43.690Z,3.30
2023-03-31T06:58:11.874Z,2.85
2023-03-31T07:00:39.060Z,3.83
2023-03-31T07:03:07.178Z,3.15
2023-03-31T07:05:34.376Z,3.30
2023-03-31T07:08:01.868Z,3.50
2023-03-31T07:10:30.292Z,3.20
2023-03-31T07:12:57.680Z,3.80
2023-03-31T07:15:25.980Z,3.75
2023-03-31T07:18:02.066Z,3.03
2023-03-31T07:20:30.050Z,3.88
2023-03-31T07:22:57.534Z,4.50
2023-03-31T07:25:24.725Z,4.20
2023-03-31T07:27:51.915Z,3.47
2023-03-31T07:30:20.247Z,3.70
2023-03-31T07:32:47.954Z,3.70
2023-03-31T07:35:15.170Z,3.83
2023-03-31T07:37:44.258Z,3.40
2023-03-31T07:40:13.413Z,3.13
2023-03-31T07:42:40.693Z,3.25
2023-03-31T07:45:08.778Z,3.40
2023-03-31T07:47:36.426Z,3.60
2023-03-31T07:50:04.316Z,3.72
2023-03-31T07:52:31.516Z,3.85
2023-03-31T07:54:58.698Z,3.72
2023-03-31T07:57:29.056Z,3.58
2023-03-31T07:59:56.326Z,3.80
2023-03-31T08:02:24.012Z,3.22
2023-03-31T08:04:51.313Z,3.75
2023-03-31T08:07:18.514Z,4.75
2023-03-31T08:09:46.409Z,3.20
2023-03-31T08:12:15.462Z,3.55
2023-03-31T08:14:43.135Z,3.42
2023-03-31T08:17:11.317Z,3.10
2023-03-31T08:19:38.607Z,3.03
2023-03-31T08:22:05.809Z,3.10
2023-03-31T08:24:33.036Z,4.13
2023-03-31T08:27:00.269Z,2.95
2023-03-31T08:29:27.514Z,3.10
2023-03-31T08:31:55.658Z,2.90
2023-03-31T08:34:22.935Z,3.20
2023-03-31T08:36:50.341Z,3.42
2023-03-31T08:39:17.858Z,3.78
2023-03-31T08:41:54.260Z,3.50
2023-03-31T08:44:21.674Z,3.45
2023-03-31T08:46:49.844Z,3.00
2023-03-31T08:49:18.537Z,3.10
2023-03-31T08:51:55.629Z,3.72
2023-03-31T08:54:28.591Z,3.38
2023-03-31T08:56:55.844Z,3.55
2023-03-31T08:59:31.314Z,3.70
2023-03-31T09:02:03.967Z,3.25
2023-03-31T09:04:33.936Z,3.65
2023-03-31T09:07:08.605Z,3.58
2023-03-31T09:09:54.454Z,3.25
2023-03-31T09:12:24.368Z,3.45
2023-03-31T09:14:55.209Z,3.15
2023-03-31T09:17:25.636Z,3.05
2023-03-31T09:19:55.465Z,3.30
2023-03-31T09:22:25.003Z,3.25
2023-03-31T09:24:52.236Z,3.47
2023-03-31T09:27:20.580Z,3.10
2023-03-31T09:29:53.535Z,3.22
2023-03-31T09:32:25.445Z,2.83
2023-03-31T09:35:01.773Z,3.30
2023-03-31T09:37:31.605Z,3.20
2023-03-31T09:40:01.165Z,3.33
2023-03-31T09:42:28.398Z,3.50
2023-03-31T09:44:56.067Z,3.38
2023-03-31T09:47:42.573Z,3.38
2023-03-31T09:50:10.493Z,3.78
2023-03-31T09:52:47.031Z,2.90
2023-03-31T09:55:38.214Z,3.05
2023-03-31T09:58:08.267Z,3.47
2023-03-31T10:00:35.989Z,3.97
2023-03-31T10:03:07.738Z,3.17
2023-03-31T10:05:37.133Z,3.20
2023-03-31T10:08:13.301Z,3.47
2023-03-31T10:10:45.315Z,3.30
2023-03-31T10:13:15.445Z,4.03
2023-03-31T10:15:42.690Z,3.00
2023-03-31T10:18:14.734Z,3.85
2023-03-31T10:20:44.865Z,3.50
2023-03-31T10:23:44.730Z,3.83
2023-03-31T10:26:14.647Z,3.55
2023-03-31T10:28:41.828Z,3.63
2023-03-31T10:31:09.427Z,3.15
2023-03-31T10:33:38.812Z,3.75
2023-03-31T10:36:13.799Z,3.28
2023-03-31T10:38:45.300Z,3.33
2023-03-31T10:41:12.844Z,3.70
2023-03-31T10:43:43.871Z,3.75
2023-03-31T10:46:12.952Z,3.50
2023-03-31T10:48:41.601Z,3.88
2023-03-31T10:51:21.925Z,4.05
2023-03-31T10:53:49.886Z,4.13
2023-03-31T10:56:35.398Z,4.57
2023-03-31T10:59:21.542Z,4.13
2023-03-31T11:04:34.779Z,4.22
2023-03-31T11:07:08.595Z,3.88
2023-03-31T11:09:38.609Z,4.13
2023-03-31T11:12:18.115Z,4.28
2023-03-31T11:14:53.667Z,4.50
2023-03-31T11:17:39.727Z,3.50
2023-03-31T11:20:31.038Z,3.92
2023-03-31T11:23:04.508Z,3.92
2023-03-31T11:25:40.163Z,4.15
2023-03-31T11:30:38.887Z,3.88
2023-03-31T11:33:15.146Z,3.95
2023-03-31T11:35:48.672Z,3.75
2023-03-31T11:38:42.310Z,4.20
2023-03-31T11:41:11.632Z,3.95
2023-03-31T11:43:46.354Z,4.13
2023-03-31T11:46:33.464Z,3.00
2023-03-31T11:49:05.868Z,4.00
2023-03-31T11:51:38.398Z,3.42
2023-03-31T11:54:12.181Z,3.58
2023-03-31T11:56:40.517Z,3.85
2023-03-31T11:59:08.403Z,2.95
2023-03-31T12:01:54.953Z,3.70
2023-03-31T12:04:23.619Z,3.40
2023-03-31T12:06:51.202Z,3.97
2023-03-31T12:09:28.396Z,3.70
2023-03-31T12:12:02.350Z,4.20
2023-03-31T12:14:41.473Z,4.15
2023-03-31T12:17:16.133Z,4.25
2023-03-31T12:19:46.509Z,3.90
2023-03-31T12:22:51.933Z,4.13
2023-03-31T12:25:32.472Z,4.60
2023-03-31T12:28:00.185Z,4.32
2023-03-31T12:30:42.048Z,5.28
2023-03-31T12:33:33.351Z,4.38
2023-03-31T12:36:00.750Z,4.72
2023-03-31T12:38:31.023Z,5.35
2023-03-31T12:40:58.303Z,7.00
2023-03-31T12:43:37.717Z,5.15
2023-03-31T12:46:20.088Z,5.00
2023-03-31T12:48:56.459Z,5.88
2023-03-31T12:51:43.880Z,5.32
2023-03-31T12:54:29.762Z,5.07
2023-03-31T12:57:06.638Z,5.47
2023-03-31T12:59:47.069Z,4.82
2023-03-31T13:02:17.593Z,4.63
2023-03-31T13:04:45.037Z,5.13
2023-03-31T13:07:35.269Z,5.32
2023-03-31T13:10:14.722Z,4.63
2023-03-31T13:12:42.242Z,5.97
2023-03-31T13:15:14.956Z,4.93
2023-03-31T13:17:43.087Z,5.18
2023-03-31T13:20:18.067Z,5.35
2023-03-31T13:22:48.401Z,5.72
2023-03-31T13:25:30.999Z,5.03
2023-03-31T13:27:59.310Z,4.57
2023-03-31T13:30:49.760Z,4.72
2023-03-31T13:33:37.210Z,4.95
2023-03-31T13:36:22.982Z,4.93
2023-03-31T13:39:11.126Z,5.18
2023-03-31T13:41:43.322Z,4.88
2023-03-31T13:44:29.536Z,5.38
2023-03-31T13:49:42.732Z,6.25
2023-03-31T13:52:13.065Z,4.90
2023-03-31T13:55:07.190Z,4.75
2023-03-31T13:57:52.897Z,4.97
2023-03-31T14:00:42.226Z,4.20
2023-03-31T14:03:28.424Z,4.57
2023-03-31T14:06:14.599Z,3.47
2023-03-31T14:11:18.152Z,4.35
2023-03-31T14:13:45.389Z,4.30
2023-03-31T14:16:13.506Z,4.60
2023-03-31T14:18:46.312Z,3.65
2023-03-31T14:21:30.964Z,3.90
2023-03-31T14:24:03.623Z,4.97
2023-03-31T14:26:30.741Z,4.22
2023-03-31T14:29:01.337Z,5.60
2023-03-31T14:31:38.897Z,4.60
2023-03-31T14:34:09.841Z,4.32
2023-03-31T14:36:41.797Z,4.80
2023-03-31T14:39:11.182Z,4.70
2023-03-31T14:41:38.496Z,5.13
2023-03-31T14:44:07.125Z,3.90
2023-03-31T14:46:37.972Z,4.63
2023-03-31T14:49:16.570Z,4.25
2023-03-31T14:51:45.055Z,4.95
2023-03-31T14:54:22.701Z,6.50
2023-03-31T14:56:52.422Z,6.18
2023-03-31T14:59:22.047Z,5.57
2023-03-31T15:01:49.901Z,5.20
2023-03-31T15:04:19.043Z,4.63
2023-03-31T15:06:48.719Z,5.32
2023-03-31T15:09:23.877Z,6.32
2023-03-31T15:11:54.846Z,4.97
2023-03-31T15:14:22.330Z,4.43
2023-03-31T15:16:50.671Z,4.57
2023-03-31T15:19:19.700Z,4.82
2023-03-31T15:21:47.262Z,5.57
2023-03-31T15:24:15.464Z,4.57
2023-03-31T15:26:57.335Z,4.47
2023-03-31T15:29:47.931Z,4.85
2023-03-31T15:32:36.129Z,5.43
2023-03-31T15:37:53.153Z,4.47
2023-03-31T15:40:23.204Z,4.28
2023-03-31T15:43:01.959Z,4.97
2023-03-31T15:45:45.761Z,4.68
2023-03-31T15:48:33.415Z,4.63
2023-03-31T15:51:07.518Z,4.95
2023-03-31T15:53:39.368Z,4.97
2023-03-31T15:56:07.541Z,4.85
2023-03-31T15:58:53.407Z,5.25
2023-03-31T16:01:21.069Z,4.43
2023-03-31T16:03:48.391Z,4.85
2023-03-31T16:06:34.700Z,5.00
2023-03-31T16:09:09.250Z,4.70
2023-03-31T16:11:51.157Z,4.80
2023-03-31T16:14:21.700Z,4.82
2023-03-31T16:16:50.920Z,5.00
2023-03-31T16:19:18.998Z,4.97
2023-03-31T16:21:50.157Z,4.68
2023-03-31T16:24:17.515Z,5.07
2023-03-31T16:26:44.968Z,4.38
2023-03-31T16:29:20.648Z,4.85
2023-03-31T16:34:15.062Z,4.68
2023-03-31T16:36:42.818Z,4.63
2023-03-31T16:39:10.064Z,4.95
2023-03-31T16:41:38.088Z,4.38
2023-03-31T16:44:06.534Z,3.67
2023-03-31T16:46:34.110Z,4.20
2023-03-31T16:49:01.412Z,4.30
2023-03-31T16:51:28.683Z,4.20
2023-03-31T16:53:58.847Z,3.90
2023-03-31T16:56:27.163Z,3.90
2023-03-31T16:58:55.026Z,4.30
2023-03-31T17:01:22.331Z,4.40
2023-03-31T17:03:49.639Z,4.22
2023-03-31T17:06:16.965Z,4.38
2023-03-31T17:08:44.282Z,4.43
2023-03-31T17:11:14.022Z,4.43
2023-03-31T17:13:42.638Z,3.75
2023-03-31T17:16:19.269Z,3.85
2023-03-31T17:18:51.346Z,4.07
2023-03-31T17:21:19.209Z,3.90
2023-03-31T17:23:47.438Z,3.78
2023-03-31T17:26:15.496Z,4.03
2023-03-31T17:28:42.887Z,4.20
2023-03-31T17:31:20.507Z,4.40
2023-03-31T17:33:48.371Z,4.20
2023-03-31T17:36:16.503Z,4.10
2023-03-31T17:38:43.716Z,4.43
2023-03-31T17:41:12.764Z,4.10
2023-03-31T17:43:40.094Z,3.92
2023-03-31T17:46:11.046Z,4.03
2023-03-31T17:48:40.064Z,4.25
2023-03-31T17:51:08.352Z,4.10
2023-03-31T17:53:36.318Z,4.25
2023-03-31T17:56:04.420Z,4.05
2023-03-31T17:58:32.330Z,4.43
2023-03-31T18:00:59.898Z,4.10
2023-03-31T18:03:29.316Z,3.78
2023-03-31T18:05:57.703Z,4.35
2023-03-31T18:08:24.959Z,3.80
2023-03-31T18:10:52.113Z,3.83
2023-03-31T18:13:19.376Z,4.32
2023-03-31T18:15:48.448Z,4.43
2023-03-31T18:18:15.869Z,4.03
2023-03-31T18:20:43.083Z,3.40
2023-03-31T18:23:10.287Z,4.00
2023-03-31T18:25:37.827Z,4.03
2023-03-31T18:28:05.186Z,4.22
2023-03-31T18:30:32.566Z,4.15
2023-03-31T18:33:00.087Z,4.28
2023-03-31T18:35:27.639Z,3.45
2023-03-31T18:37:54.837Z,4.10
2023-03-31T18:40:22.107Z,3.95
2023-03-31T18:42:49.385Z,4.00
2023-03-31T18:45:16.862Z,3.67
2023-03-31T18:47:44.179Z,4.25
2023-03-31T18:50:13.549Z,3.78
2023-03-31T18:52:41.164Z,3.90
2023-03-31T18:55:08.538Z,4.00
2023-03-31T18:57:35.832Z,4.05
2023-03-31T19:00:03.715Z,3.80
2023-03-31T19:02:31.278Z,3.47
2023-03-31T19:04:58.999Z,4.25
2023-03-31T19:07:26.568Z,4.32
2023-03-31T19:09:53.817Z,3.60
2023-03-31T19:12:22.288Z,3.80
2023-03-31T19:14:49.441Z,3.95
2023-03-31T19:17:17.771Z,3.90
2023-03-31T19:19:45.815Z,3.92
2023-03-31T19:22:13.037Z,3.45
2023-03-31T19:24:40.554Z,4.32
2023-03-31T19:27:07.915Z,3.92
2023-03-31T19:29:35.292Z,3.45
2023-03-31T19:32:02.813Z,5.03
2023-03-31T19:34:30.169Z,4.78
2023-03-31T19:36:57.782Z,3.95
2023-03-31T19:39:26.730Z,4.32
2023-03-31T19:41:53.880Z,3.75
2023-03-31T19:44:21.132Z,3.50
2023-03-31T19:46:48.334Z,3.22
2023-03-31T19:49:15.927Z,3.85
2023-03-31T19:51:43.172Z,3.72
2023-03-31T19:54:11.349Z,3.50
2023-03-31T19:56:38.901Z,3.85
2023-03-31T19:59:06.209Z,4.20
2023-03-31T20:01:33.865Z,3.80
2023-03-31T20:04:01.259Z,3.88
2023-03-31T20:06:30.052Z,3.45
2023-03-31T20:08:58.695Z,3.83
2023-03-31T20:11:26.994Z,4.22
2023-03-31T20:13:54.421Z,4.40
2023-03-31T20:16:23.518Z,3.58
2023-03-31T20:19:17.035Z,4.70
2023-03-31T20:21:44.939Z,4.55
2023-03-31T20:24:15.883Z,4.10
2023-03-31T20:26:43.410Z,4.43
2023-03-31T20:29:10.935Z,4.22
2023-03-31T20:31:39.225Z,4.43
2023-03-31T20:34:12.092Z,3.92
2023-03-31T20:36:40.178Z,4.30
2023-03-31T20:39:07.755Z,3.92
2023-03-31T20:41:37.111Z,4.28
2023-03-31T20:44:04.772Z,3.95
2023-03-31T20:46:32.085Z,3.97
2023-03-31T20:48:59.460Z,3.53
2023-03-31T20:51:28.082Z,4.07
2023-03-31T20:53:56.314Z,4.07
2023-03-31T20:56:25.815Z,4.43
2023-03-31T20:58:57.642Z,4.55
2023-03-31T21:01:26.260Z,3.70
2023-03-31T21:03:54.865Z,4.00
2023-03-31T21:06:22.223Z,4.13
2023-03-31T21:08:53.179Z,4.03
2023-03-31T21:11:20.630Z,4.15
2023-03-31T21:13:48.730Z,3.65
2023-03-31T21:16:16.448Z,4.80
2023-03-31T21:18:43.868Z,4.00
2023-03-31T21:21:12.383Z,4.88
2023-03-31T21:23:39.707Z,4.28
2023-03-31T21:26:07.716Z,4.40
2023-03-31T21:28:36.661Z,4.20
2023-03-31T21:31:05.165Z,4.93
2023-03-31T21:33:33.089Z,4.88
2023-03-31T21:36:00.395Z,4.50
2023-03-31T21:38:31.107Z,4.63
2023-03-31T21:40:58.315Z,4.63
2023-03-31T21:43:26.042Z,4.40
2023-03-31T21:45:58.048Z,4.65
2023-03-31T21:48:26.454Z,3.80
2023-03-31T21:50:54.852Z,4.15
2023-03-31T21:53:23.043Z,4.70
2023-03-31T21:55:55.534Z,4.28
2023-03-31T21:58:23.626Z,3.70
2023-03-31T22:00:50.798Z,4.65
2023-03-31T22:03:27.042Z,4.25
2023-03-31T22:06:05.074Z,4.50
2023-03-31T22:08:32.343Z,5.22
2023-03-31T22:11:00.369Z,4.47
2023-03-31T22:13:28.586Z,3.90
2023-03-31T22:15:56.297Z,4.97
2023-03-31T22:18:23.719Z,5.10
2023-03-31T22:20:51.204Z,4.10
2023-03-31T22:23:20.543Z,5.40
2023-03-31T22:25:48.035Z,4.50
2023-03-31T22:28:15.600Z,4.68
2023-03-31T22:30:43.015Z,4.80
2023-03-31T22:33:10.183Z,4.90
2023-03-31T22:35:37.437Z,5.68
2023-03-31T22:38:06.155Z,4.07
2023-03-31T22:40:34.573Z,4.72
2023-03-31T22:43:01.845Z,5.03
2023-03-31T22:45:29.151Z,4.72
2023-03-31T22:47:56.545Z,3.85
2023-03-31T22:50:24.170Z,4.90
2023-03-31T22:52:52.065Z,4.38
2023-03-31T22:55:19.489Z,4.72
2023-03-31T22:57:46.872Z,4.43
2023-03-31T23:00:14.321Z,4.43
2023-03-31T23:02:42.250Z,4.70
2023-03-31T23:05:10.428Z,4.75
2023-03-31T23:07:38.519Z,4.20
2023-03-31T23:10:06.408Z,4.45
2023-03-31T23:12:33.664Z,4.90
2023-03-31T23:15:00.829Z,4.70
2023-03-31T23:17:28.045Z,4.68
2023-03-31T23:19:55.439Z,4.57
2023-03-31T23:22:25.296Z,4.63
2023-03-31T23:24:52.626Z,4.07
2023-03-31T23:27:20.078Z,3.80
2023-03-31T23:29:47.316Z,4.00
2023-03-31T23:32:14.897Z,4.57
2023-03-31T23:34:42.266Z,4.18
2023-03-31T23:37:10.275Z,3.97
2023-03-31T23:39:38.872Z,4.75
2023-03-31T23:42:10.052Z,4.28
2023-03-31T23:44:37.703Z,3.78
2023-03-31T23:47:05.514Z,4.32
2023-03-31T23:49:32.757Z,4.00
2023-03-31T23:51:59.904Z,4.05
2023-03-31T23:54:27.260Z,3.80
2023-03-31T23:56:54.465Z,4.13
2023-03-31T23:59:21.671Z,4.43
